sensor_id;sensor_type;location;lat;lon;timestamp;P1;durP1;ratioP1;P2;durP2;ratioP2
69034;SDS011;56091;55.756;37.412;2023-03-23T00:02:26;5.63;;;2.30;;
69034;SDS011;56091;55.756;37.412;2023-03-23T00:07:29;5.95;;;2.30;;
69034;SDS011;56091;55.756;37.412;2023-03-23T00:12:31;6.53;;;2.70;;
69034;SDS011;56091;55.756;37.412;2023-03-23T00:17:35;6.45;;;2.50;;
69034;SDS011;56091;55.756;37.412;2023-03-23T00:22:36;5.68;;;2.20;;
69034;SDS011;56091;55.756;37.412;2023-03-23T00:27:38;5.83;;;2.40;;
69034;SDS011;56091;55.756;37.412;2023-03-23T00:32:38;6.05;;;2.50;;
69034;SDS011;56091;55.756;37.412;2023-03-23T00:37:40;6.77;;;2.60;;
69034;SDS011;56091;55.756;37.412;2023-03-23T00:42:41;5.75;;;2.50;;
69034;SDS011;56091;55.756;37.412;2023-03-23T00:47:41;6.30;;;2.70;;
69034;SDS011;56091;55.756;37.412;2023-03-23T00:52:47;6.78;;;2.92;;
69034;SDS011;56091;55.756;37.412;2023-03-23T00:57:49;9.05;;;3.05;;
69034;SDS011;56091;55.756;37.412;2023-03-23T01:02:55;8.02;;;3.30;;
69034;SDS011;56091;55.756;37.412;2023-03-23T01:07:58;8.85;;;3.22;;
69034;SDS011;56091;55.756;37.412;2023-03-23T01:12:59;7.53;;;2.88;;
69034;SDS011;56091;55.756;37.412;2023-03-23T01:18:01;10.15;;;3.40;;
69034;SDS011;56091;55.756;37.412;2023-03-23T01:23:02;8.32;;;2.92;;
69034;SDS011;56091;55.756;37.412;2023-03-23T01:28:03;7.35;;;3.03;;
69034;SDS011;56091;55.756;37.412;2023-03-23T01:33:05;7.60;;;2.90;;
69034;SDS011;56091;55.756;37.412;2023-03-23T01:38:06;6.85;;;3.08;;
69034;SDS011;56091;55.756;37.412;2023-03-23T01:43:11;8.63;;;3.13;;
69034;SDS011;56091;55.756;37.412;2023-03-23T01:48:18;8.70;;;3.30;;
69034;SDS011;56091;55.756;37.412;2023-03-23T01:53:25;7.73;;;3.20;;
69034;SDS011;56091;55.756;37.412;2023-03-23T01:58:31;7.38;;;3.10;;
69034;SDS011;56091;55.756;37.412;2023-03-23T02:03:34;9.70;;;3.30;;
69034;SDS011;56091;55.756;37.412;2023-03-23T02:08:37;10.07;;;2.70;;
69034;SDS011;56091;55.756;37.412;2023-03-23T02:13:42;8.27;;;3.03;;
69034;SDS011;56091;55.756;37.412;2023-03-23T02:18:57;8.75;;;3.05;;
69034;SDS011;56091;55.756;37.412;2023-03-23T02:35:05;7.60;;;3.10;;
69034;SDS011;56091;55.756;37.412;2023-03-23T02:40:45;9.88;;;3.42;;
69034;SDS011;56091;55.756;37.412;2023-03-23T02:45:48;7.33;;;2.97;;
69034;SDS011;56091;55.756;37.412;2023-03-23T02:50:51;8.07;;;3.03;;
69034;SDS011;56091;55.756;37.412;2023-03-23T02:55:54;19.17;;;3.20;;
69034;SDS011;56091;55.756;37.412;2023-03-23T03:11:37;8.90;;;3.00;;
69034;SDS011;56091;55.756;37.412;2023-03-23T03:16:57;7.83;;;3.07;;
69034;SDS011;56091;55.756;37.412;2023-03-23T03:22:04;9.40;;;3.50;;
69034;SDS011;56091;55.756;37.412;2023-03-23T03:27:14;8.53;;;3.47;;
69034;SDS011;56091;55.756;37.412;2023-03-23T03:32:39;11.13;;;3.47;;
69034;SDS011;56091;55.756;37.412;2023-03-23T03:37:47;8.67;;;3.40;;
69034;SDS011;56091;55.756;37.412;2023-03-23T03:42:49;8.57;;;3.83;;
69034;SDS011;56091;55.756;37.412;2023-03-23T03:47:50;8.73;;;4.07;;
69034;SDS011;56091;55.756;37.412;2023-03-23T03:52:51;9.98;;;3.67;;
69034;SDS011;56091;55.756;37.412;2023-03-23T03:57:53;8.10;;;3.53;;
69034;SDS011;56091;55.756;37.412;2023-03-23T04:03:20;13.25;;;2.65;;
69034;SDS011;56091;55.756;37.412;2023-03-23T04:08:36;7.87;;;3.23;;
69034;SDS011;56091;55.756;37.412;2023-03-23T04:13:41;8.80;;;3.28;;
69034;SDS011;56091;55.756;37.412;2023-03-23T04:18:48;9.73;;;3.77;;
69034;SDS011;56091;55.756;37.412;2023-03-23T04:23:51;8.05;;;3.60;;
69034;SDS011;56091;55.756;37.412;2023-03-23T04:28:54;9.87;;;4.23;;
69034;SDS011;56091;55.756;37.412;2023-03-23T04:34:24;13.32;;;3.95;;
69034;SDS011;56091;55.756;37.412;2023-03-23T04:39:27;11.17;;;4.30;;
69034;SDS011;56091;55.756;37.412;2023-03-23T04:44:32;9.70;;;4.15;;
69034;SDS011;56091;55.756;37.412;2023-03-23T04:49:38;13.17;;;5.00;;
69034;SDS011;56091;55.756;37.412;2023-03-23T04:54:47;11.57;;;4.57;;
69034;SDS011;56091;55.756;37.412;2023-03-23T04:59:48;13.73;;;4.40;;
69034;SDS011;56091;55.756;37.412;2023-03-23T05:04:54;11.65;;;4.55;;
69034;SDS011;56091;55.756;37.412;2023-03-23T05:09:58;12.93;;;4.90;;
69034;SDS011;56091;55.756;37.412;2023-03-23T05:15:04;11.77;;;5.40;;
69034;SDS011;56091;55.756;37.412;2023-03-23T05:20:09;13.90;;;5.53;;
69034;SDS011;56091;55.756;37.412;2023-03-23T05:25:23;17.88;;;5.45;;
69034;SDS011;56091;55.756;37.412;2023-03-23T05:30:32;12.67;;;5.67;;
69034;SDS011;56091;55.756;37.412;2023-03-23T05:35:34;16.17;;;5.75;;
69034;SDS011;56091;55.756;37.412;2023-03-23T05:40:36;13.90;;;6.20;;
69034;SDS011;56091;55.756;37.412;2023-03-23T05:46:00;12.95;;;5.85;;
69034;SDS011;56091;55.756;37.412;2023-03-23T05:51:02;11.23;;;5.53;;
69034;SDS011;56091;55.756;37.412;2023-03-23T05:56:06;13.15;;;5.43;;
69034;SDS011;56091;55.756;37.412;2023-03-23T06:01:31;14.27;;;5.83;;
69034;SDS011;56091;55.756;37.412;2023-03-23T06:06:33;18.70;;;6.72;;
69034;SDS011;56091;55.756;37.412;2023-03-23T06:11:40;16.27;;;5.87;;
69034;SDS011;56091;55.756;37.412;2023-03-23T06:17:03;15.45;;;6.13;;
69034;SDS011;56091;55.756;37.412;2023-03-23T06:22:03;18.20;;;6.10;;
69034;SDS011;56091;55.756;37.412;2023-03-23T06:27:38;14.88;;;6.28;;
69034;SDS011;56091;55.756;37.412;2023-03-23T06:32:43;19.37;;;6.30;;
69034;SDS011;56091;55.756;37.412;2023-03-23T06:37:47;14.20;;;6.15;;
69034;SDS011;56091;55.756;37.412;2023-03-23T06:42:58;13.83;;;6.17;;
69034;SDS011;56091;55.756;37.412;2023-03-23T06:48:22;14.23;;;5.93;;
69034;SDS011;56091;55.756;37.412;2023-03-23T06:53:26;15.87;;;6.10;;
69034;SDS011;56091;55.756;37.412;2023-03-23T06:58:30;13.25;;;6.40;;
69034;SDS011;56091;55.756;37.412;2023-03-23T07:03:31;13.00;;;6.03;;
69034;SDS011;56091;55.756;37.412;2023-03-23T07:08:42;14.25;;;6.28;;
69034;SDS011;56091;55.756;37.412;2023-03-23T07:13:47;13.00;;;5.73;;
69034;SDS011;56091;55.756;37.412;2023-03-23T07:18:51;16.13;;;6.68;;
69034;SDS011;56091;55.756;37.412;2023-03-23T07:23:52;15.27;;;5.70;;
69034;SDS011;56091;55.756;37.412;2023-03-23T07:29:13;16.40;;;6.00;;
69034;SDS011;56091;55.756;37.412;2023-03-23T07:34:20;16.83;;;5.67;;
69034;SDS011;56091;55.756;37.412;2023-03-23T07:39:33;12.68;;;5.70;;
69034;SDS011;56091;55.756;37.412;2023-03-23T07:44:35;10.83;;;5.33;;
69034;SDS011;56091;55.756;37.412;2023-03-23T07:49:42;13.45;;;5.75;;
69034;SDS011;56091;55.756;37.412;2023-03-23T07:55:12;14.23;;;5.47;;
69034;SDS011;56091;55.756;37.412;2023-03-23T08:00:34;12.50;;;5.15;;
69034;SDS011;56091;55.756;37.412;2023-03-23T08:05:38;11.50;;;5.10;;
69034;SDS011;56091;55.756;37.412;2023-03-23T08:10:48;15.27;;;5.95;;
69034;SDS011;56091;55.756;37.412;2023-03-23T08:16:12;11.37;;;5.53;;
69034;SDS011;56091;55.756;37.412;2023-03-23T08:21:30;14.15;;;5.72;;
69034;SDS011;56091;55.756;37.412;2023-03-23T08:26:52;14.23;;;6.67;;
69034;SDS011;56091;55.756;37.412;2023-03-23T08:32:11;13.63;;;5.85;;
69034;SDS011;56091;55.756;37.412;2023-03-23T08:37:12;12.17;;;5.63;;
69034;SDS011;56091;55.756;37.412;2023-03-23T08:42:31;16.60;;;5.40;;
69034;SDS011;56091;55.756;37.412;2023-03-23T08:47:44;13.97;;;5.63;;
69034;SDS011;56091;55.756;37.412;2023-03-23T08:53:06;14.23;;;6.10;;
69034;SDS011;56091;55.756;37.412;2023-03-23T08:58:22;13.73;;;5.93;;
69034;SDS011;56091;55.756;37.412;2023-03-23T09:03:23;15.93;;;6.45;;
69034;SDS011;56091;55.756;37.412;2023-03-23T09:08:43;12.50;;;5.87;;
69034;SDS011;56091;55.756;37.412;2023-03-23T09:13:45;12.25;;;5.13;;
69034;SDS011;56091;55.756;37.412;2023-03-23T09:18:46;13.73;;;5.50;;
69034;SDS011;56091;55.756;37.412;2023-03-23T09:23:46;13.95;;;6.20;;
69034;SDS011;56091;55.756;37.412;2023-03-23T09:28:48;13.80;;;6.13;;
69034;SDS011;56091;55.756;37.412;2023-03-23T09:33:49;14.07;;;5.32;;
69034;SDS011;56091;55.756;37.412;2023-03-23T09:38:53;13.47;;;5.60;;
69034;SDS011;56091;55.756;37.412;2023-03-23T09:49:34;10.90;;;5.30;;
69034;SDS011;56091;55.756;37.412;2023-03-23T09:54:41;10.18;;;5.00;;
69034;SDS011;56091;55.756;37.412;2023-03-23T09:59:47;11.10;;;4.80;;
69034;SDS011;56091;55.756;37.412;2023-03-23T10:04:50;16.10;;;5.82;;
69034;SDS011;56091;55.756;37.412;2023-03-23T10:09:57;9.07;;;4.30;;
69034;SDS011;56091;55.756;37.412;2023-03-23T10:15:20;9.82;;;4.40;;
69034;SDS011;56091;55.756;37.412;2023-03-23T10:31:31;19.70;;;4.90;;
69034;SDS011;56091;55.756;37.412;2023-03-23T10:36:48;8.45;;;4.18;;
69034;SDS011;56091;55.756;37.412;2023-03-23T10:41:53;9.50;;;4.00;;
69034;SDS011;56091;55.756;37.412;2023-03-23T10:52:24;10.03;;;4.70;;
69034;SDS011;56091;55.756;37.412;2023-03-23T10:57:39;10.50;;;4.28;;
69034;SDS011;56091;55.756;37.412;2023-03-23T11:02:57;10.87;;;4.13;;
69034;SDS011;56091;55.756;37.412;2023-03-23T11:07:59;8.13;;;4.10;;
69034;SDS011;56091;55.756;37.412;2023-03-23T11:13:02;8.03;;;3.77;;
69034;SDS011;56091;55.756;37.412;2023-03-23T11:18:12;9.40;;;3.80;;
69034;SDS011;56091;55.756;37.412;2023-03-23T11:28:31;12.70;;;4.07;;
69034;SDS011;56091;55.756;37.412;2023-03-23T11:33:36;9.10;;;4.50;;
69034;SDS011;56091;55.756;37.412;2023-03-23T11:38:40;9.85;;;3.50;;
69034;SDS011;56091;55.756;37.412;2023-03-23T11:43:44;11.60;;;3.67;;
69034;SDS011;56091;55.756;37.412;2023-03-23T11:48:52;12.30;;;3.92;;
69034;SDS011;56091;55.756;37.412;2023-03-23T11:59:37;7.40;;;3.38;;
69034;SDS011;56091;55.756;37.412;2023-03-23T12:04:46;7.37;;;3.50;;
69034;SDS011;56091;55.756;37.412;2023-03-23T12:26:15;8.07;;;3.73;;
69034;SDS011;56091;55.756;37.412;2023-03-23T12:52:50;8.23;;;3.90;;
69034;SDS011;56091;55.756;37.412;2023-03-23T12:58:02;10.60;;;4.40;;
69034;SDS011;56091;55.756;37.412;2023-03-23T13:03:12;7.93;;;3.88;;
69034;SDS011;56091;55.756;37.412;2023-03-23T13:08:29;8.33;;;4.00;;
69034;SDS011;56091;55.756;37.412;2023-03-23T13:13:53;9.07;;;4.10;;
69034;SDS011;56091;55.756;37.412;2023-03-23T13:24:18;11.23;;;4.40;;
69034;SDS011;56091;55.756;37.412;2023-03-23T13:29:22;8.00;;;4.10;;
69034;SDS011;56091;55.756;37.412;2023-03-23T13:34:29;13.75;;;4.13;;
69034;SDS011;56091;55.756;37.412;2023-03-23T13:39:32;10.93;;;4.00;;
69034;SDS011;56091;55.756;37.412;2023-03-23T13:49:51;10.27;;;3.87;;
69034;SDS011;56091;55.756;37.412;2023-03-23T13:55:08;10.43;;;3.85;;
69034;SDS011;56091;55.756;37.412;2023-03-23T14:00:35;9.90;;;3.80;;
69034;SDS011;56091;55.756;37.412;2023-03-23T14:10:56;7.93;;;3.90;;
69034;SDS011;56091;55.756;37.412;2023-03-23T14:16:04;9.13;;;4.07;;
69034;SDS011;56091;55.756;37.412;2023-03-23T14:21:37;10.57;;;3.75;;
69034;SDS011;56091;55.756;37.412;2023-03-23T14:26:40;9.70;;;3.80;;
69034;SDS011;56091;55.756;37.412;2023-03-23T14:31:42;13.20;;;3.85;;
69034;SDS011;56091;55.756;37.412;2023-03-23T14:36:44;9.80;;;4.20;;
69034;SDS011;56091;55.756;37.412;2023-03-23T14:41:45;13.65;;;4.68;;
69034;SDS011;56091;55.756;37.412;2023-03-23T14:46:49;15.17;;;5.90;;
69034;SDS011;56091;55.756;37.412;2023-03-23T14:51:51;11.60;;;4.85;;
69034;SDS011;56091;55.756;37.412;2023-03-23T14:56:55;10.33;;;4.27;;
69034;SDS011;56091;55.756;37.412;2023-03-23T15:01:56;10.63;;;4.18;;
69034;SDS011;56091;55.756;37.412;2023-03-23T15:07:03;13.47;;;4.20;;
69034;SDS011;56091;55.756;37.412;2023-03-23T15:12:05;9.10;;;4.35;;
69034;SDS011;56091;55.756;37.412;2023-03-23T15:17:09;9.97;;;4.20;;
69034;SDS011;56091;55.756;37.412;2023-03-23T15:22:20;13.73;;;4.50;;
69034;SDS011;56091;55.756;37.412;2023-03-23T15:27:33;10.47;;;3.80;;
69034;SDS011;56091;55.756;37.412;2023-03-23T15:32:40;11.13;;;4.45;;
69034;SDS011;56091;55.756;37.412;2023-03-23T15:37:49;11.43;;;4.13;;
69034;SDS011;56091;55.756;37.412;2023-03-23T15:48:24;12.47;;;4.37;;
69034;SDS011;56091;55.756;37.412;2023-03-23T15:53:29;9.75;;;4.20;;
69034;SDS011;56091;55.756;37.412;2023-03-23T15:58:32;12.33;;;3.97;;
69034;SDS011;56091;55.756;37.412;2023-03-23T16:03:36;12.57;;;4.57;;
69034;SDS011;56091;55.756;37.412;2023-03-23T16:08:37;13.70;;;4.90;;
69034;SDS011;56091;55.756;37.412;2023-03-23T16:13:40;12.05;;;4.80;;
69034;SDS011;56091;55.756;37.412;2023-03-23T16:18:41;10.37;;;4.10;;
69034;SDS011;56091;55.756;37.412;2023-03-23T16:23:42;13.85;;;3.88;;
69034;SDS011;56091;55.756;37.412;2023-03-23T16:28:45;10.33;;;4.00;;
69034;SDS011;56091;55.756;37.412;2023-03-23T16:33:46;12.32;;;4.30;;
69034;SDS011;56091;55.756;37.412;2023-03-23T16:38:47;13.47;;;4.97;;
69034;SDS011;56091;55.756;37.412;2023-03-23T16:43:47;9.68;;;4.38;;
69034;SDS011;56091;55.756;37.412;2023-03-23T16:48:51;9.77;;;4.27;;
69034;SDS011;56091;55.756;37.412;2023-03-23T16:53:52;11.03;;;4.20;;
69034;SDS011;56091;55.756;37.412;2023-03-23T16:58:52;10.95;;;4.47;;
69034;SDS011;56091;55.756;37.412;2023-03-23T17:03:59;12.43;;;4.60;;
69034;SDS011;56091;55.756;37.412;2023-03-23T17:08:59;10.88;;;4.30;;
69034;SDS011;56091;55.756;37.412;2023-03-23T17:14:00;11.43;;;4.47;;
69034;SDS011;56091;55.756;37.412;2023-03-23T17:19:04;9.50;;;4.18;;
69034;SDS011;56091;55.756;37.412;2023-03-23T17:24:06;12.83;;;4.33;;
69034;SDS011;56091;55.756;37.412;2023-03-23T17:29:08;9.00;;;4.45;;
69034;SDS011;56091;55.756;37.412;2023-03-23T17:34:09;13.90;;;5.30;;
69034;SDS011;56091;55.756;37.412;2023-03-23T17:39:10;13.32;;;5.60;;
69034;SDS011;56091;55.756;37.412;2023-03-23T17:44:10;13.17;;;5.23;;
69034;SDS011;56091;55.756;37.412;2023-03-23T17:49:11;15.35;;;5.00;;
69034;SDS011;56091;55.756;37.412;2023-03-23T17:54:12;13.87;;;5.00;;
69034;SDS011;56091;55.756;37.412;2023-03-23T17:59:13;16.48;;;5.75;;
69034;SDS011;56091;55.756;37.412;2023-03-23T18:04:14;16.70;;;5.53;;
69034;SDS011;56091;55.756;37.412;2023-03-23T18:09:15;14.37;;;5.43;;
69034;SDS011;56091;55.756;37.412;2023-03-23T18:14:19;15.70;;;5.88;;
69034;SDS011;56091;55.756;37.412;2023-03-23T18:19:20;18.53;;;6.80;;
69034;SDS011;56091;55.756;37.412;2023-03-23T18:24:23;14.10;;;5.57;;
69034;SDS011;56091;55.756;37.412;2023-03-23T18:29:24;16.00;;;6.60;;
69034;SDS011;56091;55.756;37.412;2023-03-23T18:34:25;14.70;;;6.60;;
69034;SDS011;56091;55.756;37.412;2023-03-23T18:39:28;14.30;;;6.00;;
69034;SDS011;56091;55.756;37.412;2023-03-23T18:44:31;15.10;;;6.38;;
69034;SDS011;56091;55.756;37.412;2023-03-23T18:49:32;16.03;;;6.23;;
69034;SDS011;56091;55.756;37.412;2023-03-23T18:54:32;14.70;;;6.40;;
69034;SDS011;56091;55.756;37.412;2023-03-23T18:59:34;13.70;;;6.03;;
69034;SDS011;56091;55.756;37.412;2023-03-23T19:04:35;12.82;;;6.03;;
69034;SDS011;56091;55.756;37.412;2023-03-23T19:09:36;17.80;;;5.93;;
69034;SDS011;56091;55.756;37.412;2023-03-23T19:14:38;18.08;;;5.90;;
69034;SDS011;56091;55.756;37.412;2023-03-23T19:19:39;14.30;;;6.50;;
69034;SDS011;56091;55.756;37.412;2023-03-23T19:24:41;14.07;;;6.13;;
69034;SDS011;56091;55.756;37.412;2023-03-23T19:29:42;14.97;;;6.23;;
69034;SDS011;56091;55.756;37.412;2023-03-23T19:34:43;12.50;;;6.27;;
69034;SDS011;56091;55.756;37.412;2023-03-23T19:39:44;12.93;;;6.32;;
69034;SDS011;56091;55.756;37.412;2023-03-23T19:44:45;15.67;;;6.40;;
69034;SDS011;56091;55.756;37.412;2023-03-23T19:49:48;14.35;;;5.97;;
69034;SDS011;56091;55.756;37.412;2023-03-23T19:54:49;14.67;;;6.47;;
69034;SDS011;56091;55.756;37.412;2023-03-23T19:59:50;14.23;;;6.38;;
69034;SDS011;56091;55.756;37.412;2023-03-23T20:04:51;11.53;;;6.10;;
69034;SDS011;56091;55.756;37.412;2023-03-23T20:09:51;14.23;;;6.10;;
69034;SDS011;56091;55.756;37.412;2023-03-23T20:14:52;12.70;;;5.80;;
69034;SDS011;56091;55.756;37.412;2023-03-23T20:19:53;14.80;;;6.47;;
69034;SDS011;56091;55.756;37.412;2023-03-23T20:24:54;12.18;;;5.90;;
69034;SDS011;56091;55.756;37.412;2023-03-23T20:30:01;11.53;;;5.57;;
69034;SDS011;56091;55.756;37.412;2023-03-23T20:35:05;14.25;;;5.78;;
69034;SDS011;56091;55.756;37.412;2023-03-23T20:40:10;11.27;;;5.70;;
69034;SDS011;56091;55.756;37.412;2023-03-23T20:45:15;13.30;;;5.70;;
69034;SDS011;56091;55.756;37.412;2023-03-23T20:50:17;11.97;;;5.80;;
69034;SDS011;56091;55.756;37.412;2023-03-23T20:55:19;11.45;;;5.57;;
69034;SDS011;56091;55.756;37.412;2023-03-23T21:00:23;12.50;;;5.60;;
69034;SDS011;56091;55.756;37.412;2023-03-23T21:05:24;17.00;;;6.38;;
69034;SDS011;56091;55.756;37.412;2023-03-23T21:10:25;16.13;;;6.33;;
69034;SDS011;56091;55.756;37.412;2023-03-23T21:15:27;12.68;;;6.03;;
69034;SDS011;56091;55.756;37.412;2023-03-23T21:20:34;19.23;;;6.27;;
69034;SDS011;56091;55.756;37.412;2023-03-23T21:25:35;14.90;;;7.35;;
69034;SDS011;56091;55.756;37.412;2023-03-23T21:30:37;15.27;;;6.37;;
69034;SDS011;56091;55.756;37.412;2023-03-23T21:35:44;15.52;;;6.30;;
69034;SDS011;56091;55.756;37.412;2023-03-23T21:40:45;15.57;;;7.00;;
69034;SDS011;56091;55.756;37.412;2023-03-23T21:45:48;14.40;;;6.85;;
69034;SDS011;56091;55.756;37.412;2023-03-23T21:50:49;13.93;;;6.70;;
69034;SDS011;56091;55.756;37.412;2023-03-23T21:55:53;14.77;;;6.47;;
69034;SDS011;56091;55.756;37.412;2023-03-23T22:00:55;15.32;;;7.30;;
69034;SDS011;56091;55.756;37.412;2023-03-23T22:06:11;13.63;;;6.93;;
69034;SDS011;56091;55.756;37.412;2023-03-23T22:11:19;16.38;;;7.32;;
69034;SDS011;56091;55.756;37.412;2023-03-23T22:16:22;15.33;;;7.40;;
69034;SDS011;56091;55.756;37.412;2023-03-23T22:21:24;13.38;;;7.03;;
69034;SDS011;56091;55.756;37.412;2023-03-23T22:26:26;19.10;;;7.83;;
69034;SDS011;56091;55.756;37.412;2023-03-23T22:31:29;19.52;;;7.95;;
69034;SDS011;56091;55.756;37.412;2023-03-23T22:36:33;16.10;;;8.17;;
69034;SDS011;56091;55.756;37.412;2023-03-23T22:41:38;16.65;;;8.50;;
69034;SDS011;56091;55.756;37.412;2023-03-23T22:46:40;16.47;;;8.03;;
69034;SDS011;56091;55.756;37.412;2023-03-23T22:51:41;15.63;;;7.53;;
69034;SDS011;56091;55.756;37.412;2023-03-23T22:56:42;18.30;;;9.57;;
69034;SDS011;56091;55.756;37.412;2023-03-23T23:01:43;17.50;;;8.98;;
69034;SDS011;56091;55.756;37.412;2023-03-23T23:06:44;19.77;;;9.90;;
69034;SDS011;56091;55.756;37.412;2023-03-23T23:11:45;18.95;;;9.52;;
69034;SDS011;56091;55.756;37.412;2023-03-23T23:16:46;20.27;;;9.40;;
69034;SDS011;56091;55.756;37.412;2023-03-23T23:21:47;22.38;;;9.52;;
69034;SDS011;56091;55.756;37.412;2023-03-23T23:26:48;21.53;;;10.37;;
69034;SDS011;56091;55.756;37.412;2023-03-23T23:31:49;18.80;;;9.50;;
69034;SDS011;56091;55.756;37.412;2023-03-23T23:36:49;21.70;;;10.17;;
69034;SDS011;56091;55.756;37.412;2023-03-23T23:41:50;19.05;;;9.85;;
69034;SDS011;56091;55.756;37.412;2023-03-23T23:46:51;20.70;;;9.90;;
69034;SDS011;56091;55.756;37.412;2023-03-23T23:51:55;21.75;;;9.73;;
69034;SDS011;56091;55.756;37.412;2023-03-23T23:56:59;19.40;;;10.30;;
